Flight Track Log - Related Links

Times and Time Zones

All times are in EDT time to prevent confusion due to time zone crossing. See the EJA727 flight status page for this flight to view local times or setup timezone preferences in your user account.


Time Position Orientation Groundspeed Altitude Reporting Facility
EDT Latitude Longitude Course Direction KTS MPH feet Rate Location/Type
Mon 04:04:29 PM 33.8500 -84.3167 231° Southwest 169 194 2,100  Level Atlanta TRACON
Mon 04:05:29 PM 33.8167 -84.3667 231° Southwest 209 241 4,100 1,900 Climbing Atlanta TRACON
Mon 04:06:29 PM 33.7833 -84.4333 239° Southwest 254 292 5,900 950 Climbing Atlanta TRACON
Mon 04:07:29 PM 33.7167 -84.4167 168° South 276 318 6,000 50 Climbing Atlanta TRACON
Mon 04:08:29 PM 33.6500 -84.4000 168° South 279 321 6,000  Level Atlanta TRACON
Mon 04:09:18 PM 33.5808 -84.3928 175° South 280 322 6,000  Level Atlanta Center
Mon 04:10:18 PM 33.5100 -84.3850 175° South 267 307 6,000 950 Level Atlanta Center
Mon 04:11:18 PM 33.4347 -84.3747 173° South 273 314 7,900 2,000 Climbing Atlanta Center
Mon 04:12:18 PM 33.3639 -84.3647 173° South 288 331 10,000 2,500 Climbing Atlanta Center
Mon 04:13:18 PM 33.2742 -84.3519 173° South 301 346 12,900 3,050 Climbing Atlanta Center
Mon 04:14:18 PM 33.1803 -84.3069 158° South 344 396 16,100 2,033 Climbing Atlanta Center
Mon 04:16:18 PM 32.9781 -84.2172 160° South 400 460 19,000 1,267 Climbing Atlanta Center
Mon 04:17:18 PM 32.8675 -84.1675 159° South 414 476 19,900 496 Climbing Atlanta Center
Mon 04:18:19 PM 32.7528 -84.1156 159° South 425 489 20,000 50 Climbing Atlanta Center
Mon 04:19:18 PM 32.6378 -84.0683 161° South 435 501 20,000 807 Level Atlanta Center
Mon 04:20:18 PM 32.5253 -84.0192 160° South 435 501 21,600 1,800 Climbing Atlanta Center
Mon 04:21:18 PM 32.4061 -83.9944 170° South 435 501 23,600 1,750 Climbing Atlanta Center
Mon 04:22:18 PM 32.2850 -83.9822 175° South 435 501 25,100 1,700 Climbing Atlanta Center
Mon 04:23:18 PM 32.1597 -83.9678 174° South 440 506 27,000 1,950 Climbing Atlanta Center
Mon 04:24:18 PM 32.0389 -83.9408 169° South 445 512 29,000 1,481 Climbing Atlanta Center
Mon 04:26:00 PM 31.8350 -83.8658 163° South 428 493 31,000 741 Climbing Jacksonville Center
Mon 04:27:00 PM 31.7103 -83.7986 155° Southeast 462 532 31,000  Level Jacksonville Center
Mon 04:28:00 PM 31.5856 -83.7267 154° Southeast 479 551 31,000  Level Jacksonville Center
Mon 04:29:00 PM 31.4564 -83.6597 156° South 498 573 31,000  Level Jacksonville Center
Mon 04:30:00 PM 31.3317 -83.5906 155° Southeast 498 573 31,000  Level Jacksonville Center
Mon 04:31:00 PM 31.2086 -83.5192 154° Southeast 498 573 31,000 350 Level Jacksonville Center
Mon 04:32:00 PM 31.0839 -83.4481 154° Southeast 498 573 31,700 1,100 Climbing Jacksonville Center
Mon 04:33:00 PM 30.9631 -83.3747 153° Southeast 498 573 33,200 1,650 Climbing Jacksonville Center
Mon 04:34:00 PM 30.8653 -83.2700 137° Southeast 491 565 35,000 1,600 Climbing Jacksonville Center
Mon 04:35:00 PM 30.7672 -83.1828 143° Southeast 467 537 36,400 1,150 Climbing Jacksonville Center
Mon 04:36:00 PM 30.6464 -83.1317 160° South 455 524 37,300 950 Climbing Jacksonville Center
Mon 04:37:00 PM 30.5231 -83.0758 159° South 461 531 38,300 850 Climbing Jacksonville Center
Mon 04:38:00 PM 30.4000 -83.0228 160° South 466 536 39,000 300 Climbing Jacksonville Center
Mon 04:39:00 PM 30.2789 -82.9672 158° South 473 544 38,900  Descending Jacksonville Center
Mon 04:40:00 PM 30.1758 -82.9211 159° South  Level FlightAware Approximate
Mon 04:40:00 PM 30.1517 -82.9117 159° South 473 544 39,000  Level Jacksonville Center
Mon 04:41:00 PM 30.0117 -82.8542 160° South 480 552 39,000  Level Jacksonville Center
Mon 04:42:00 PM 29.8906 -82.7992 159° South 485 558 39,000  Level Jacksonville Center
Mon 04:43:00 PM 29.7675 -82.7442 159° South 485 558 39,000  Level Jacksonville Center
Mon 04:44:00 PM 29.6442 -82.6919 160° South 480 552 39,000  Level Jacksonville Center
Mon 04:45:00 PM 29.5208 -82.6300 156° South 473 544 39,000  Level Jacksonville Center
Mon 04:46:00 PM 29.3997 -82.5781 160° South 473 544 39,000  Level Jacksonville Center
Mon 04:47:00 PM 29.2764 -82.5258 160° South 473 544 39,000  Level Jacksonville Center
Mon 04:48:00 PM 29.1531 -82.4717 159° South 473 544 39,000 -50 Level Jacksonville Center
Mon 04:49:00 PM 29.0256 -82.4367 167° South 468 539 38,900 -550 Descending Jacksonville Center
Mon 04:50:00 PM 28.8942 -82.4206 174° South 462 532 37,900 -992 Descending Jacksonville Center
Mon 04:51:01 PM 28.7625 -82.4022 173° South 477 549 36,900 -1,000 Descending Jacksonville Center
Mon 04:52:00 PM 28.6331 -82.3864 174° South 477 549 35,900 -659 Descending Jacksonville Center
Mon 04:53:54 PM 28.3956 -82.3592 174° South 479 551 35,000 -310 Descending Miami Center
Mon 04:54:54 PM 28.2481 -82.3403 174° South 485 558 35,000  Level Miami Center
Mon 04:55:54 PM 28.1133 -82.3219 173° South 485 558 35,000  Level Miami Center
Mon 04:56:54 PM 27.9744 -82.2942 170° South 495 570 35,000  Level Miami Center
Mon 04:57:54 PM 27.8469 -82.2481 162° South 495 570 35,000 -700 Level Miami Center
Mon 04:58:54 PM 27.7256 -82.2050 163° South 495 570 33,600 -1,650 Descending Miami Center
Mon 04:59:54 PM 27.5956 -82.1592 163° South 495 570 31,700 -2,100 Descending Miami Center
Mon 05:00:54 PM 27.4556 -82.1106 163° South 490 564 29,400 -2,100 Descending Miami Center
Mon 05:01:54 PM 27.3278 -82.0672 163° South 483 556 27,500 -1,900 Descending Miami Center
Mon 05:02:54 PM 27.1978 -82.0217 163° South 483 556 25,600 -1,650 Descending Miami Center
Mon 05:03:54 PM 27.0911 -81.9728 158° South 478 550 24,200 -1,550 Descending Miami Center
Mon 05:04:54 PM 26.9689 -81.8858 148° Southeast 473 544 22,500 -1,750 Descending Miami Center
Mon 05:05:54 PM 26.8608 -81.8111 148° Southeast 473 544 20,700 -1,700 Descending Miami Center
Mon 05:06:54 PM 26.7569 -81.7372 148° Southeast 461 531 19,100 -850 Descending Miami Center
Mon 05:07:54 PM 26.6994 -81.6417 124° Southeast 415 478 19,000 -50 Descending Miami Center
Mon 05:08:54 PM 26.7161 -81.5147 82° East 374 430 19,000 -600 Level Miami Center
Mon 05:09:54 PM 26.7497 -81.3786 75° East 395 455 17,800 -1,450 Descending Miami Center
Mon 05:10:54 PM 26.7739 -81.2658 76° East 388 447 16,100 -1,550 Descending Miami Center
Mon 05:11:54 PM 26.8000 -81.1619 74° East 364 419 14,700 -1,450 Descending Miami Center
Mon 05:12:54 PM 26.8133 -81.0669 81° East 347 399 13,200 -1,400 Descending Miami Center
Mon 05:13:54 PM 26.8100 -80.9644 92° East 332 382 11,900 -1,350 Descending Miami Center
Mon 05:14:54 PM 26.8044 -80.8689 94° East 295 339 10,500 -1,300 Descending Miami Center
Mon 05:15:54 PM 26.7794 -80.7844 108° East 282 325 9,300 -1,450 Descending Miami Center
Mon 05:16:54 PM 26.7356 -80.7131 125° Southeast 277 319 7,600 -1,100 Descending Miami Center
Mon 05:17:54 PM 26.6956 -80.6444 123° Southeast 272 313 7,100 -450 Descending Miami Center
Mon 05:18:54 PM 26.6514 -80.5756 126° Southeast 267 307 6,700 -1,150 Descending Miami Center
Mon 05:19:54 PM 26.5878 -80.5272 146° Southeast 278 320 4,800 -1,750 Descending Miami Center
Mon 05:20:54 PM 26.5347 -80.4767 140° Southeast 272 313 3,200 -1,149 Descending Miami Center
Mon 05:21:28 PM 26.5147 -80.4414 122° Southeast 235 270 3,000 -145 Descending Miami Center
Mon 05:22:17 PM 26.4931 -80.3850 113° Southeast 247 284 3,000 -419 Level Miami Center
Mon 05:22:54 PM 26.4753 -80.3450 116° Southeast 238 274 2,400 -574 Descending Miami Center
Mon 05:24:12 PM 26.4394 -80.2697 118° Southeast 198 228 1,900 -345 Descending Miami Center
Mon 05:25:13 PM 26.4094 -80.2200 124° Southeast 192 221 1,600 -295 Descending Miami Center
Mon 05:26:14 PM 26.3769 -80.1797 132° Southeast 158 182 1,300 -443 Descending Miami Center
Mon 05:27:15 PM 26.3567 -80.1444 123° Southeast 131 151 700 -590 Descending Miami Center
Mon 05:29:00 PM 26.3667 -80.1000 180° South  Level FlightAware Approximate
Mon 05:36:00 PM 26.3785 -80.1077 180° South  Level Estimated

Login

Don't have an account? Register now (free) for customized features, flight alerts, and more!